sensor_id;sensor_type;location;lat;lon;timestamp;P1;durP1;ratioP1;P2;durP2;ratioP2
1785;SDS011;890;48.158;11.540;2023-09-18T00:00:22;6.43;;;4.63;;
1785;SDS011;890;48.158;11.540;2023-09-18T00:02:47;5.07;;;4.53;;
1785;SDS011;890;48.158;11.540;2023-09-18T00:05:13;4.57;;;4.17;;
1785;SDS011;890;48.158;11.540;2023-09-18T00:07:41;4.50;;;4.10;;
1785;SDS011;890;48.158;11.540;2023-09-18T00:10:08;5.20;;;4.80;;
1785;SDS011;890;48.158;11.540;2023-09-18T00:12:37;4.80;;;4.40;;
1785;SDS011;890;48.158;11.540;2023-09-18T00:15:04;5.57;;;4.73;;
1785;SDS011;890;48.158;11.540;2023-09-18T00:17:30;6.83;;;4.50;;
1785;SDS011;890;48.158;11.540;2023-09-18T00:19:56;5.23;;;4.20;;
1785;SDS011;890;48.158;11.540;2023-09-18T00:22:21;6.17;;;4.80;;
1785;SDS011;890;48.158;11.540;2023-09-18T00:24:49;4.77;;;4.27;;
1785;SDS011;890;48.158;11.540;2023-09-18T00:27:15;4.60;;;4.20;;
1785;SDS011;890;48.158;11.540;2023-09-18T00:29:41;4.27;;;3.87;;
1785;SDS011;890;48.158;11.540;2023-09-18T00:32:07;5.20;;;4.60;;
1785;SDS011;890;48.158;11.540;2023-09-18T00:34:33;4.40;;;4.10;;
1785;SDS011;890;48.158;11.540;2023-09-18T00:36:58;4.70;;;4.30;;
1785;SDS011;890;48.158;11.540;2023-09-18T00:39:24;4.80;;;4.40;;
1785;SDS011;890;48.158;11.540;2023-09-18T00:41:50;5.20;;;4.70;;
1785;SDS011;890;48.158;11.540;2023-09-18T00:44:19;5.13;;;4.57;;
1785;SDS011;890;48.158;11.540;2023-09-18T00:46:45;4.10;;;3.80;;
1785;SDS011;890;48.158;11.540;2023-09-18T00:49:11;4.23;;;3.83;;
1785;SDS011;890;48.158;11.540;2023-09-18T00:51:37;4.50;;;3.70;;
1785;SDS011;890;48.158;11.540;2023-09-18T00:54:03;5.33;;;4.13;;
1785;SDS011;890;48.158;11.540;2023-09-18T00:56:29;4.17;;;3.77;;
1785;SDS011;890;48.158;11.540;2023-09-18T00:58:54;4.40;;;4.00;;
1785;SDS011;890;48.158;11.540;2023-09-18T01:01:20;4.37;;;3.97;;
1785;SDS011;890;48.158;11.540;2023-09-18T01:03:48;4.43;;;4.03;;
1785;SDS011;890;48.158;11.540;2023-09-18T01:06:18;4.90;;;4.33;;
1785;SDS011;890;48.158;11.540;2023-09-18T01:08:45;7.07;;;4.40;;
1785;SDS011;890;48.158;11.540;2023-09-18T01:11:19;4.73;;;4.33;;
1785;SDS011;890;48.158;11.540;2023-09-18T01:14:07;4.20;;;3.80;;
1785;SDS011;890;48.158;11.540;2023-09-18T01:16:44;5.17;;;4.70;;
1785;SDS011;890;48.158;11.540;2023-09-18T01:19:16;5.10;;;4.40;;
1785;SDS011;890;48.158;11.540;2023-09-18T01:21:44;4.60;;;4.10;;
1785;SDS011;890;48.158;11.540;2023-09-18T01:24:10;4.90;;;3.50;;
1785;SDS011;890;48.158;11.540;2023-09-18T01:26:36;5.30;;;3.70;;
1785;SDS011;890;48.158;11.540;2023-09-18T01:29:02;4.40;;;3.97;;
1785;SDS011;890;48.158;11.540;2023-09-18T01:31:27;5.23;;;4.10;;
1785;SDS011;890;48.158;11.540;2023-09-18T01:33:53;4.87;;;3.70;;
1785;SDS011;890;48.158;11.540;2023-09-18T01:36:19;4.10;;;3.43;;
1785;SDS011;890;48.158;11.540;2023-09-18T01:38:45;4.60;;;4.20;;
1785;SDS011;890;48.158;11.540;2023-09-18T01:41:12;4.37;;;3.97;;
1785;SDS011;890;48.158;11.540;2023-09-18T01:43:37;5.00;;;3.90;;
1785;SDS011;890;48.158;11.540;2023-09-18T01:46:03;4.60;;;3.90;;
1785;SDS011;890;48.158;11.540;2023-09-18T01:48:29;4.23;;;3.83;;
1785;SDS011;890;48.158;11.540;2023-09-18T01:50:55;5.73;;;3.50;;
1785;SDS011;890;48.158;11.540;2023-09-18T01:53:21;4.30;;;3.90;;
1785;SDS011;890;48.158;11.540;2023-09-18T01:55:47;3.73;;;3.43;;
1785;SDS011;890;48.158;11.540;2023-09-18T01:58:13;5.30;;;4.00;;
1785;SDS011;890;48.158;11.540;2023-09-18T02:00:39;3.73;;;3.30;;
1785;SDS011;890;48.158;11.540;2023-09-18T02:03:05;4.70;;;3.33;;
1785;SDS011;890;48.158;11.540;2023-09-18T02:05:30;4.03;;;3.23;;
1785;SDS011;890;48.158;11.540;2023-09-18T02:07:57;4.30;;;4.00;;
1785;SDS011;890;48.158;11.540;2023-09-18T02:10:23;5.60;;;3.80;;
1785;SDS011;890;48.158;11.540;2023-09-18T02:12:48;4.00;;;3.60;;
1785;SDS011;890;48.158;11.540;2023-09-18T02:15:14;3.53;;;3.20;;
1785;SDS011;890;48.158;11.540;2023-09-18T02:17:41;3.60;;;3.30;;
1785;SDS011;890;48.158;11.540;2023-09-18T02:20:08;4.37;;;3.30;;
1785;SDS011;890;48.158;11.540;2023-09-18T02:22:36;5.37;;;3.37;;
1785;SDS011;890;48.158;11.540;2023-09-18T02:25:05;4.43;;;3.10;;
1785;SDS011;890;48.158;11.540;2023-09-18T02:27:32;4.70;;;4.00;;
1785;SDS011;890;48.158;11.540;2023-09-18T02:29:58;3.80;;;3.50;;
1785;SDS011;890;48.158;11.540;2023-09-18T02:32:24;4.57;;;4.10;;
1785;SDS011;890;48.158;11.540;2023-09-18T02:34:49;4.83;;;3.50;;
1785;SDS011;890;48.158;11.540;2023-09-18T02:37:15;3.53;;;3.23;;
1785;SDS011;890;48.158;11.540;2023-09-18T02:39:41;6.10;;;4.10;;
1785;SDS011;890;48.158;11.540;2023-09-18T02:42:06;4.00;;;3.60;;
1785;SDS011;890;48.158;11.540;2023-09-18T02:44:32;4.27;;;3.87;;
1785;SDS011;890;48.158;11.540;2023-09-18T02:46:57;4.87;;;3.77;;
1785;SDS011;890;48.158;11.540;2023-09-18T02:49:23;5.13;;;3.50;;
1785;SDS011;890;48.158;11.540;2023-09-18T02:51:49;4.63;;;3.87;;
1785;SDS011;890;48.158;11.540;2023-09-18T02:54:14;3.80;;;3.50;;
1785;SDS011;890;48.158;11.540;2023-09-18T02:56:40;5.00;;;3.63;;
1785;SDS011;890;48.158;11.540;2023-09-18T02:59:06;4.50;;;3.90;;
1785;SDS011;890;48.158;11.540;2023-09-18T03:01:31;4.80;;;3.70;;
1785;SDS011;890;48.158;11.540;2023-09-18T03:03:57;4.40;;;3.50;;
1785;SDS011;890;48.158;11.540;2023-09-18T03:06:22;4.37;;;3.97;;
1785;SDS011;890;48.158;11.540;2023-09-18T03:08:48;4.83;;;3.87;;
1785;SDS011;890;48.158;11.540;2023-09-18T03:11:14;4.10;;;3.70;;
1785;SDS011;890;48.158;11.540;2023-09-18T03:13:43;4.23;;;3.77;;
1785;SDS011;890;48.158;11.540;2023-09-18T03:16:12;4.70;;;3.90;;
1785;SDS011;890;48.158;11.540;2023-09-18T03:18:38;5.33;;;4.77;;
1785;SDS011;890;48.158;11.540;2023-09-18T03:21:04;5.57;;;4.37;;
1785;SDS011;890;48.158;11.540;2023-09-18T03:23:29;4.47;;;3.97;;
1785;SDS011;890;48.158;11.540;2023-09-18T03:25:55;4.90;;;3.90;;
1785;SDS011;890;48.158;11.540;2023-09-18T03:28:21;4.60;;;4.03;;
1785;SDS011;890;48.158;11.540;2023-09-18T03:30:46;6.40;;;3.80;;
1785;SDS011;890;48.158;11.540;2023-09-18T03:33:12;6.40;;;3.60;;
1785;SDS011;890;48.158;11.540;2023-09-18T03:35:47;4.70;;;4.30;;
1785;SDS011;890;48.158;11.540;2023-09-18T03:38:14;4.87;;;4.10;;
1785;SDS011;890;48.158;11.540;2023-09-18T03:40:40;4.57;;;4.10;;
1785;SDS011;890;48.158;11.540;2023-09-18T03:43:06;4.47;;;4.00;;
1785;SDS011;890;48.158;11.540;2023-09-18T03:45:32;7.00;;;4.10;;
1785;SDS011;890;48.158;11.540;2023-09-18T03:47:57;6.93;;;4.70;;
1785;SDS011;890;48.158;11.540;2023-09-18T03:50:23;5.80;;;4.63;;
1785;SDS011;890;48.158;11.540;2023-09-18T03:52:49;6.87;;;4.63;;
1785;SDS011;890;48.158;11.540;2023-09-18T03:55:14;5.03;;;4.63;;
1785;SDS011;890;48.158;11.540;2023-09-18T03:57:41;5.23;;;4.40;;
1785;SDS011;890;48.158;11.540;2023-09-18T04:00:07;6.30;;;4.53;;
1785;SDS011;890;48.158;11.540;2023-09-18T04:02:33;5.30;;;4.43;;
1785;SDS011;890;48.158;11.540;2023-09-18T04:04:59;5.87;;;5.27;;
1785;SDS011;890;48.158;11.540;2023-09-18T04:07:25;6.43;;;4.03;;
1785;SDS011;890;48.158;11.540;2023-09-18T04:09:51;4.47;;;4.07;;
1785;SDS011;890;48.158;11.540;2023-09-18T04:12:17;4.33;;;3.73;;
1785;SDS011;890;48.158;11.540;2023-09-18T04:14:42;4.63;;;3.90;;
1785;SDS011;890;48.158;11.540;2023-09-18T04:17:08;6.83;;;4.70;;
1785;SDS011;890;48.158;11.540;2023-09-18T04:19:33;4.53;;;4.13;;
1785;SDS011;890;48.158;11.540;2023-09-18T04:21:59;5.50;;;5.00;;
1785;SDS011;890;48.158;11.540;2023-09-18T04:24:25;5.40;;;4.47;;
1785;SDS011;890;48.158;11.540;2023-09-18T04:26:51;7.47;;;4.30;;
1785;SDS011;890;48.158;11.540;2023-09-18T04:29:17;5.40;;;4.37;;
1785;SDS011;890;48.158;11.540;2023-09-18T04:31:43;5.80;;;4.50;;
1785;SDS011;890;48.158;11.540;2023-09-18T04:34:09;4.77;;;4.37;;
1785;SDS011;890;48.158;11.540;2023-09-18T04:36:35;5.37;;;4.03;;
1785;SDS011;890;48.158;11.540;2023-09-18T04:39:02;4.70;;;4.20;;
1785;SDS011;890;48.158;11.540;2023-09-18T04:41:29;7.57;;;5.40;;
1785;SDS011;890;48.158;11.540;2023-09-18T04:43:55;6.70;;;4.77;;
1785;SDS011;890;48.158;11.540;2023-09-18T04:46:21;5.20;;;4.23;;
1785;SDS011;890;48.158;11.540;2023-09-18T04:48:46;6.13;;;4.70;;
1785;SDS011;890;48.158;11.540;2023-09-18T04:51:12;6.20;;;4.83;;
1785;SDS011;890;48.158;11.540;2023-09-18T04:53:40;5.03;;;4.57;;
1785;SDS011;890;48.158;11.540;2023-09-18T04:56:06;5.93;;;4.37;;
1785;SDS011;890;48.158;11.540;2023-09-18T04:58:32;4.80;;;4.13;;
1785;SDS011;890;48.158;11.540;2023-09-18T05:00:58;5.47;;;4.60;;
1785;SDS011;890;48.158;11.540;2023-09-18T05:03:25;5.20;;;4.80;;
1785;SDS011;890;48.158;11.540;2023-09-18T05:05:54;5.70;;;5.20;;
1785;SDS011;890;48.158;11.540;2023-09-18T05:08:19;8.63;;;5.57;;
1785;SDS011;890;48.158;11.540;2023-09-18T05:10:45;5.03;;;4.60;;
1785;SDS011;890;48.158;11.540;2023-09-18T05:13:11;4.93;;;4.50;;
1785;SDS011;890;48.158;11.540;2023-09-18T05:15:36;6.20;;;4.80;;
1785;SDS011;890;48.158;11.540;2023-09-18T05:18:02;6.47;;;5.23;;
1785;SDS011;890;48.158;11.540;2023-09-18T05:20:29;8.20;;;4.97;;
1785;SDS011;890;48.158;11.540;2023-09-18T05:22:56;6.57;;;5.30;;
1785;SDS011;890;48.158;11.540;2023-09-18T05:25:22;5.73;;;4.90;;
1785;SDS011;890;48.158;11.540;2023-09-18T05:27:50;6.67;;;4.43;;
1785;SDS011;890;48.158;11.540;2023-09-18T05:30:21;5.87;;;4.80;;
1785;SDS011;890;48.158;11.540;2023-09-18T05:32:57;5.70;;;4.67;;
1785;SDS011;890;48.158;11.540;2023-09-18T05:35:29;6.70;;;4.90;;
1785;SDS011;890;48.158;11.540;2023-09-18T05:37:55;6.13;;;4.50;;
1785;SDS011;890;48.158;11.540;2023-09-18T05:40:23;6.90;;;4.80;;
1785;SDS011;890;48.158;11.540;2023-09-18T05:42:53;6.60;;;4.80;;
1785;SDS011;890;48.158;11.540;2023-09-18T05:45:19;5.33;;;4.83;;
1785;SDS011;890;48.158;11.540;2023-09-18T05:47:45;5.67;;;5.10;;
1785;SDS011;890;48.158;11.540;2023-09-18T05:50:12;5.57;;;4.87;;
1785;SDS011;890;48.158;11.540;2023-09-18T05:52:40;5.03;;;4.47;;
1785;SDS011;890;48.158;11.540;2023-09-18T05:55:06;5.00;;;4.50;;
1785;SDS011;890;48.158;11.540;2023-09-18T05:57:32;4.70;;;4.20;;
1785;SDS011;890;48.158;11.540;2023-09-18T05:59:57;6.37;;;4.90;;
1785;SDS011;890;48.158;11.540;2023-09-18T06:02:23;5.03;;;4.07;;
1785;SDS011;890;48.158;11.540;2023-09-18T06:04:55;8.00;;;4.87;;
1785;SDS011;890;48.158;11.540;2023-09-18T06:07:23;6.10;;;5.40;;
1785;SDS011;890;48.158;11.540;2023-09-18T06:09:49;7.00;;;5.60;;
1785;SDS011;890;48.158;11.540;2023-09-18T06:12:15;6.57;;;4.67;;
1785;SDS011;890;48.158;11.540;2023-09-18T06:14:41;11.23;;;5.20;;
1785;SDS011;890;48.158;11.540;2023-09-18T06:17:07;5.60;;;4.33;;
1785;SDS011;890;48.158;11.540;2023-09-18T06:19:34;5.93;;;4.70;;
1785;SDS011;890;48.158;11.540;2023-09-18T06:22:00;8.50;;;4.93;;
1785;SDS011;890;48.158;11.540;2023-09-18T06:24:25;4.23;;;3.83;;
1785;SDS011;890;48.158;11.540;2023-09-18T06:26:51;9.27;;;5.40;;
1785;SDS011;890;48.158;11.540;2023-09-18T06:29:18;6.17;;;4.77;;
1785;SDS011;890;48.158;11.540;2023-09-18T06:31:43;5.50;;;5.00;;
1785;SDS011;890;48.158;11.540;2023-09-18T06:34:09;7.17;;;5.50;;
1785;SDS011;890;48.158;11.540;2023-09-18T06:36:34;9.80;;;5.10;;
1785;SDS011;890;48.158;11.540;2023-09-18T06:39:00;7.03;;;5.40;;
1785;SDS011;890;48.158;11.540;2023-09-18T06:41:26;5.70;;;4.90;;
1785;SDS011;890;48.158;11.540;2023-09-18T06:43:51;5.23;;;4.43;;
1785;SDS011;890;48.158;11.540;2023-09-18T06:46:17;6.73;;;4.80;;
1785;SDS011;890;48.158;11.540;2023-09-18T06:48:43;5.77;;;4.80;;
1785;SDS011;890;48.158;11.540;2023-09-18T06:51:10;4.70;;;4.30;;
1785;SDS011;890;48.158;11.540;2023-09-18T06:53:36;6.20;;;4.53;;
1785;SDS011;890;48.158;11.540;2023-09-18T06:56:02;7.07;;;4.80;;
1785;SDS011;890;48.158;11.540;2023-09-18T06:58:27;5.73;;;4.90;;
1785;SDS011;890;48.158;11.540;2023-09-18T07:00:53;5.70;;;5.20;;
1785;SDS011;890;48.158;11.540;2023-09-18T07:03:18;8.30;;;5.53;;
1785;SDS011;890;48.158;11.540;2023-09-18T07:05:44;8.37;;;4.70;;
1785;SDS011;890;48.158;11.540;2023-09-18T07:08:11;5.40;;;4.13;;
1785;SDS011;890;48.158;11.540;2023-09-18T07:10:38;7.23;;;5.07;;
1785;SDS011;890;48.158;11.540;2023-09-18T07:13:04;7.03;;;4.70;;
1785;SDS011;890;48.158;11.540;2023-09-18T07:15:30;7.50;;;5.30;;
1785;SDS011;890;48.158;11.540;2023-09-18T07:17:56;5.83;;;4.57;;
1785;SDS011;890;48.158;11.540;2023-09-18T07:20:21;5.33;;;4.70;;
1785;SDS011;890;48.158;11.540;2023-09-18T07:22:48;6.33;;;4.37;;
1785;SDS011;890;48.158;11.540;2023-09-18T07:25:15;4.90;;;4.40;;
1785;SDS011;890;48.158;11.540;2023-09-18T07:27:41;5.37;;;4.87;;
1785;SDS011;890;48.158;11.540;2023-09-18T07:30:10;6.23;;;5.37;;
1785;SDS011;890;48.158;11.540;2023-09-18T07:32:38;7.80;;;5.20;;
1785;SDS011;890;48.158;11.540;2023-09-18T07:35:06;7.00;;;4.63;;
1785;SDS011;890;48.158;11.540;2023-09-18T07:37:32;6.80;;;5.37;;
1785;SDS011;890;48.158;11.540;2023-09-18T07:39:58;5.93;;;5.33;;
1785;SDS011;890;48.158;11.540;2023-09-18T07:42:24;5.83;;;5.20;;
1785;SDS011;890;48.158;11.540;2023-09-18T07:44:50;5.73;;;5.20;;
1785;SDS011;890;48.158;11.540;2023-09-18T07:47:16;6.30;;;4.80;;
1785;SDS011;890;48.158;11.540;2023-09-18T07:49:42;5.57;;;5.07;;
1785;SDS011;890;48.158;11.540;2023-09-18T07:52:07;6.30;;;5.80;;
1785;SDS011;890;48.158;11.540;2023-09-18T07:54:33;7.23;;;5.17;;
1785;SDS011;890;48.158;11.540;2023-09-18T07:56:59;7.73;;;5.00;;
1785;SDS011;890;48.158;11.540;2023-09-18T07:59:26;5.87;;;4.97;;
1785;SDS011;890;48.158;11.540;2023-09-18T08:01:52;5.43;;;4.90;;
1785;SDS011;890;48.158;11.540;2023-09-18T08:04:19;5.53;;;5.00;;
1785;SDS011;890;48.158;11.540;2023-09-18T08:06:45;5.07;;;4.60;;
1785;SDS011;890;48.158;11.540;2023-09-18T08:09:10;6.07;;;5.47;;
1785;SDS011;890;48.158;11.540;2023-09-18T08:11:38;6.80;;;5.00;;
1785;SDS011;890;48.158;11.540;2023-09-18T08:14:07;5.40;;;4.70;;
1785;SDS011;890;48.158;11.540;2023-09-18T08:16:32;6.07;;;5.20;;
1785;SDS011;890;48.158;11.540;2023-09-18T08:18:58;5.60;;;5.00;;
1785;SDS011;890;48.158;11.540;2023-09-18T08:21:25;5.47;;;4.60;;
1785;SDS011;890;48.158;11.540;2023-09-18T08:23:54;5.93;;;5.10;;
1785;SDS011;890;48.158;11.540;2023-09-18T08:26:19;7.87;;;4.93;;
1785;SDS011;890;48.158;11.540;2023-09-18T08:28:45;6.30;;;5.37;;
1785;SDS011;890;48.158;11.540;2023-09-18T08:31:11;5.90;;;4.90;;
1785;SDS011;890;48.158;11.540;2023-09-18T08:33:37;5.87;;;5.30;;
1785;SDS011;890;48.158;11.540;2023-09-18T08:36:02;5.17;;;4.77;;
1785;SDS011;890;48.158;11.540;2023-09-18T08:38:28;7.90;;;5.07;;
1785;SDS011;890;48.158;11.540;2023-09-18T08:40:54;5.33;;;4.93;;
1785;SDS011;890;48.158;11.540;2023-09-18T08:43:20;5.67;;;5.20;;
1785;SDS011;890;48.158;11.540;2023-09-18T08:48:17;6.10;;;5.50;;
1785;SDS011;890;48.158;11.540;2023-09-18T08:50:43;5.60;;;4.97;;
1785;SDS011;890;48.158;11.540;2023-09-18T08:53:10;6.33;;;5.37;;
1785;SDS011;890;48.158;11.540;2023-09-18T08:55:36;7.53;;;5.23;;
1785;SDS011;890;48.158;11.540;2023-09-18T08:58:02;6.30;;;5.70;;
1785;SDS011;890;48.158;11.540;2023-09-18T09:00:28;5.90;;;5.30;;
1785;SDS011;890;48.158;11.540;2023-09-18T09:02:54;7.20;;;5.20;;
1785;SDS011;890;48.158;11.540;2023-09-18T09:05:20;6.17;;;5.60;;
1785;SDS011;890;48.158;11.540;2023-09-18T09:07:47;5.27;;;4.80;;
1785;SDS011;890;48.158;11.540;2023-09-18T09:10:13;5.83;;;4.83;;
1785;SDS011;890;48.158;11.540;2023-09-18T09:12:55;8.17;;;5.00;;
1785;SDS011;890;48.158;11.540;2023-09-18T09:15:32;5.63;;;5.10;;
1785;SDS011;890;48.158;11.540;2023-09-18T09:18:11;6.50;;;5.07;;
1785;SDS011;890;48.158;11.540;2023-09-18T09:20:39;8.10;;;5.10;;
1785;SDS011;890;48.158;11.540;2023-09-18T09:23:08;5.57;;;5.00;;
1785;SDS011;890;48.158;11.540;2023-09-18T09:25:36;7.70;;;5.83;;
1785;SDS011;890;48.158;11.540;2023-09-18T09:28:05;8.03;;;4.97;;
1785;SDS011;890;48.158;11.540;2023-09-18T09:30:33;6.17;;;5.57;;
1785;SDS011;890;48.158;11.540;2023-09-18T09:33:04;8.17;;;4.90;;
1785;SDS011;890;48.158;11.540;2023-09-18T09:35:31;8.40;;;5.50;;
1785;SDS011;890;48.158;11.540;2023-09-18T09:38:11;6.40;;;5.17;;
1785;SDS011;890;48.158;11.540;2023-09-18T09:40:40;8.53;;;5.13;;
1785;SDS011;890;48.158;11.540;2023-09-18T09:43:08;5.67;;;5.07;;
1785;SDS011;890;48.158;11.540;2023-09-18T09:45:35;5.10;;;4.57;;
1785;SDS011;890;48.158;11.540;2023-09-18T09:48:02;7.50;;;4.40;;
1785;SDS011;890;48.158;11.540;2023-09-18T09:50:29;6.43;;;4.70;;
1785;SDS011;890;48.158;11.540;2023-09-18T09:52:57;6.40;;;5.10;;
1785;SDS011;890;48.158;11.540;2023-09-18T09:55:29;9.63;;;4.90;;
1785;SDS011;890;48.158;11.540;2023-09-18T09:58:03;5.80;;;4.93;;
1785;SDS011;890;48.158;11.540;2023-09-18T10:00:33;7.10;;;3.93;;
1785;SDS011;890;48.158;11.540;2023-09-18T10:03:07;7.83;;;4.10;;
1785;SDS011;890;48.158;11.540;2023-09-18T10:05:35;8.67;;;4.37;;
1785;SDS011;890;48.158;11.540;2023-09-18T10:08:04;8.53;;;4.10;;
1785;SDS011;890;48.158;11.540;2023-09-18T10:10:37;7.10;;;4.00;;
1785;SDS011;890;48.158;11.540;2023-09-18T10:13:18;7.23;;;4.60;;
1785;SDS011;890;48.158;11.540;2023-09-18T10:15:47;7.57;;;4.40;;
1785;SDS011;890;48.158;11.540;2023-09-18T10:18:22;8.37;;;4.03;;
1785;SDS011;890;48.158;11.540;2023-09-18T10:21:10;5.13;;;4.30;;
1785;SDS011;890;48.158;11.540;2023-09-18T10:26:35;5.90;;;4.40;;
1785;SDS011;890;48.158;11.540;2023-09-18T10:29:12;7.77;;;4.37;;
1785;SDS011;890;48.158;11.540;2023-09-18T10:31:39;7.40;;;3.60;;
1785;SDS011;890;48.158;11.540;2023-09-18T10:34:06;5.33;;;4.23;;
1785;SDS011;890;48.158;11.540;2023-09-18T10:36:32;6.50;;;4.17;;
1785;SDS011;890;48.158;11.540;2023-09-18T10:39:01;5.70;;;3.60;;
1785;SDS011;890;48.158;11.540;2023-09-18T10:41:33;9.33;;;3.27;;
1785;SDS011;890;48.158;11.540;2023-09-18T10:43:59;7.60;;;3.33;;
1785;SDS011;890;48.158;11.540;2023-09-18T10:46:26;5.17;;;3.30;;
1785;SDS011;890;48.158;11.540;2023-09-18T10:48:52;9.07;;;3.30;;
1785;SDS011;890;48.158;11.540;2023-09-18T10:51:20;5.37;;;3.20;;
1785;SDS011;890;48.158;11.540;2023-09-18T10:53:47;8.07;;;3.63;;
1785;SDS011;890;48.158;11.540;2023-09-18T10:56:16;6.57;;;2.87;;
1785;SDS011;890;48.158;11.540;2023-09-18T10:58:45;11.27;;;4.03;;
1785;SDS011;890;48.158;11.540;2023-09-18T11:01:13;6.60;;;3.83;;
1785;SDS011;890;48.158;11.540;2023-09-18T11:03:39;8.20;;;3.50;;
1785;SDS011;890;48.158;11.540;2023-09-18T11:06:07;8.87;;;4.63;;
1785;SDS011;890;48.158;11.540;2023-09-18T11:08:46;7.03;;;3.90;;
1785;SDS011;890;48.158;11.540;2023-09-18T11:11:16;8.50;;;4.83;;
1785;SDS011;890;48.158;11.540;2023-09-18T11:13:46;10.57;;;4.57;;
1785;SDS011;890;48.158;11.540;2023-09-18T11:21:27;6.33;;;2.80;;
1785;SDS011;890;48.158;11.540;2023-09-18T11:24:00;6.37;;;2.90;;
1785;SDS011;890;48.158;11.540;2023-09-18T11:26:30;5.83;;;3.00;;
1785;SDS011;890;48.158;11.540;2023-09-18T11:29:00;6.03;;;2.60;;
1785;SDS011;890;48.158;11.540;2023-09-18T11:31:46;5.33;;;3.30;;
1785;SDS011;890;48.158;11.540;2023-09-18T11:34:23;6.93;;;3.20;;
1785;SDS011;890;48.158;11.540;2023-09-18T11:37:19;6.20;;;3.20;;
1785;SDS011;890;48.158;11.540;2023-09-18T11:39:50;4.27;;;2.40;;
1785;SDS011;890;48.158;11.540;2023-09-18T11:42:19;5.30;;;2.73;;
1785;SDS011;890;48.158;11.540;2023-09-18T11:44:47;5.40;;;2.47;;
1785;SDS011;890;48.158;11.540;2023-09-18T11:47:18;4.40;;;2.40;;
1785;SDS011;890;48.158;11.540;2023-09-18T11:52:25;4.53;;;2.40;;
1785;SDS011;890;48.158;11.540;2023-09-18T11:54:52;5.53;;;2.27;;
1785;SDS011;890;48.158;11.540;2023-09-18T11:57:19;8.27;;;2.30;;
1785;SDS011;890;48.158;11.540;2023-09-18T11:59:45;4.30;;;2.40;;
1785;SDS011;890;48.158;11.540;2023-09-18T12:02:24;4.77;;;2.60;;
1785;SDS011;890;48.158;11.540;2023-09-18T12:05:04;4.43;;;1.77;;
1785;SDS011;890;48.158;11.540;2023-09-18T12:07:34;2.60;;;2.40;;
1785;SDS011;890;48.158;11.540;2023-09-18T12:10:00;3.17;;;2.10;;
1785;SDS011;890;48.158;11.540;2023-09-18T12:12:30;5.10;;;3.93;;
1785;SDS011;890;48.158;11.540;2023-09-18T12:14:56;10.03;;;6.90;;
1785;SDS011;890;48.158;11.540;2023-09-18T12:17:22;7.83;;;4.50;;
1785;SDS011;890;48.158;11.540;2023-09-18T12:19:54;7.40;;;2.50;;
1785;SDS011;890;48.158;11.540;2023-09-18T12:22:26;4.10;;;1.80;;
1785;SDS011;890;48.158;11.540;2023-09-18T12:24:53;5.33;;;2.97;;
1785;SDS011;890;48.158;11.540;2023-09-18T12:27:19;3.73;;;1.73;;
1785;SDS011;890;48.158;11.540;2023-09-18T12:29:45;3.50;;;2.00;;
1785;SDS011;890;48.158;11.540;2023-09-18T12:32:12;3.47;;;2.30;;
1785;SDS011;890;48.158;11.540;2023-09-18T12:34:40;4.83;;;2.00;;
1785;SDS011;890;48.158;11.540;2023-09-18T12:37:08;5.90;;;2.37;;
1785;SDS011;890;48.158;11.540;2023-09-18T12:39:36;3.33;;;2.23;;
1785;SDS011;890;48.158;11.540;2023-09-18T12:42:03;6.10;;;3.53;;
1785;SDS011;890;48.158;11.540;2023-09-18T12:44:29;3.77;;;2.73;;
1785;SDS011;890;48.158;11.540;2023-09-18T12:46:55;4.43;;;2.43;;
1785;SDS011;890;48.158;11.540;2023-09-18T12:49:21;3.00;;;1.97;;
1785;SDS011;890;48.158;11.540;2023-09-18T12:51:59;7.60;;;2.30;;
1785;SDS011;890;48.158;11.540;2023-09-18T12:54:45;3.73;;;2.13;;
1785;SDS011;890;48.158;11.540;2023-09-18T12:57:17;2.23;;;1.93;;
1785;SDS011;890;48.158;11.540;2023-09-18T12:59:43;2.40;;;1.90;;
1785;SDS011;890;48.158;11.540;2023-09-18T13:02:09;4.30;;;1.93;;
1785;SDS011;890;48.158;11.540;2023-09-18T13:04:38;3.00;;;1.70;;
1785;SDS011;890;48.158;11.540;2023-09-18T13:07:05;2.90;;;2.07;;
1785;SDS011;890;48.158;11.540;2023-09-18T13:09:32;4.10;;;1.57;;
1785;SDS011;890;48.158;11.540;2023-09-18T13:11:58;2.23;;;1.80;;
1785;SDS011;890;48.158;11.540;2023-09-18T13:14:26;2.00;;;1.53;;
1785;SDS011;890;48.158;11.540;2023-09-18T13:16:52;2.70;;;1.93;;
1785;SDS011;890;48.158;11.540;2023-09-18T13:19:18;2.50;;;1.80;;
1785;SDS011;890;48.158;11.540;2023-09-18T13:21:48;2.60;;;1.70;;
1785;SDS011;890;48.158;11.540;2023-09-18T13:24:30;3.40;;;2.40;;
1785;SDS011;890;48.158;11.540;2023-09-18T13:26:56;4.13;;;1.90;;
1785;SDS011;890;48.158;11.540;2023-09-18T13:29:24;4.20;;;2.03;;
1785;SDS011;890;48.158;11.540;2023-09-18T13:31:50;3.53;;;2.03;;
1785;SDS011;890;48.158;11.540;2023-09-18T13:34:16;2.40;;;1.73;;
1785;SDS011;890;48.158;11.540;2023-09-18T13:36:43;4.63;;;2.03;;
1785;SDS011;890;48.158;11.540;2023-09-18T13:39:12;3.80;;;2.30;;
1785;SDS011;890;48.158;11.540;2023-09-18T13:41:41;2.77;;;2.40;;
1785;SDS011;890;48.158;11.540;2023-09-18T13:44:07;2.73;;;2.10;;
1785;SDS011;890;48.158;11.540;2023-09-18T13:46:33;3.90;;;2.27;;
1785;SDS011;890;48.158;11.540;2023-09-18T13:49:01;3.53;;;2.13;;
1785;SDS011;890;48.158;11.540;2023-09-18T13:51:29;4.93;;;2.20;;
1785;SDS011;890;48.158;11.540;2023-09-18T13:53:58;3.10;;;2.27;;
1785;SDS011;890;48.158;11.540;2023-09-18T13:56:24;3.80;;;2.60;;
1785;SDS011;890;48.158;11.540;2023-09-18T13:58:53;3.73;;;2.30;;
1785;SDS011;890;48.158;11.540;2023-09-18T14:01:20;4.50;;;2.17;;
1785;SDS011;890;48.158;11.540;2023-09-18T14:03:47;6.30;;;2.57;;
1785;SDS011;890;48.158;11.540;2023-09-18T14:06:13;7.20;;;4.70;;
1785;SDS011;890;48.158;11.540;2023-09-18T14:08:39;4.97;;;3.50;;
1785;SDS011;890;48.158;11.540;2023-09-18T14:11:05;4.20;;;2.50;;
1785;SDS011;890;48.158;11.540;2023-09-18T14:13:31;2.97;;;2.20;;
1785;SDS011;890;48.158;11.540;2023-09-18T14:15:57;3.33;;;2.30;;
1785;SDS011;890;48.158;11.540;2023-09-18T14:18:24;2.80;;;2.13;;
1785;SDS011;890;48.158;11.540;2023-09-18T14:20:50;2.87;;;2.10;;
1785;SDS011;890;48.158;11.540;2023-09-18T14:23:15;2.87;;;1.67;;
1785;SDS011;890;48.158;11.540;2023-09-18T14:25:41;4.70;;;1.90;;
1785;SDS011;890;48.158;11.540;2023-09-18T14:28:06;3.10;;;2.03;;
1785;SDS011;890;48.158;11.540;2023-09-18T14:30:32;3.10;;;1.90;;
1785;SDS011;890;48.158;11.540;2023-09-18T14:32:58;2.53;;;1.73;;
1785;SDS011;890;48.158;11.540;2023-09-18T14:35:26;2.07;;;1.87;;
1785;SDS011;890;48.158;11.540;2023-09-18T14:37:52;3.40;;;2.27;;
1785;SDS011;890;48.158;11.540;2023-09-18T14:40:18;2.60;;;1.60;;
1785;SDS011;890;48.158;11.540;2023-09-18T14:42:46;3.10;;;2.10;;
1785;SDS011;890;48.158;11.540;2023-09-18T14:45:11;3.73;;;2.03;;
1785;SDS011;890;48.158;11.540;2023-09-18T14:47:38;3.00;;;2.07;;
1785;SDS011;890;48.158;11.540;2023-09-18T14:50:04;3.23;;;2.07;;
1785;SDS011;890;48.158;11.540;2023-09-18T14:52:30;4.57;;;3.10;;
1785;SDS011;890;48.158;11.540;2023-09-18T14:54:57;3.20;;;2.47;;
1785;SDS011;890;48.158;11.540;2023-09-18T14:57:24;3.13;;;1.90;;
1785;SDS011;890;48.158;11.540;2023-09-18T14:59:51;2.80;;;2.17;;
1785;SDS011;890;48.158;11.540;2023-09-18T15:02:17;2.93;;;1.80;;
1785;SDS011;890;48.158;11.540;2023-09-18T15:04:43;2.70;;;2.23;;
1785;SDS011;890;48.158;11.540;2023-09-18T15:07:09;2.77;;;1.90;;
1785;SDS011;890;48.158;11.540;2023-09-18T15:09:35;2.80;;;2.43;;
1785;SDS011;890;48.158;11.540;2023-09-18T15:12:02;2.80;;;1.83;;
1785;SDS011;890;48.158;11.540;2023-09-18T15:14:28;2.40;;;2.20;;
1785;SDS011;890;48.158;11.540;2023-09-18T15:16:53;2.30;;;2.10;;
1785;SDS011;890;48.158;11.540;2023-09-18T15:19:20;2.80;;;2.10;;
1785;SDS011;890;48.158;11.540;2023-09-18T15:21:46;2.00;;;1.80;;
1785;SDS011;890;48.158;11.540;2023-09-18T15:24:12;1.90;;;1.70;;
1785;SDS011;890;48.158;11.540;2023-09-18T15:26:38;3.70;;;1.90;;
1785;SDS011;890;48.158;11.540;2023-09-18T15:29:03;2.23;;;1.67;;